Time;durP1;ratioP1;P1;durP2;ratioP2;P2;SDS_P1;SDS_P2;PMS_P1;PMS_P2;Temp;Humidity;BMP_temperature;BMP_pressure;BME280_temperature;BME280_humidity;BME280_pressure;Samples;Min_cycle;Max_cycle;Signal;HPM_P1;HPM_P2
2022/06/26 00:01:09;;;;;;;12.80;9.35;;;19.40;99.90;;;;;;5112720;27;20043;-69
2022/06/26 00:03:35;;;;;;;12.65;9.43;;;19.40;99.90;;;;;;5121168;27;20115;-69
2022/06/26 00:06:00;;;;;;;10.82;8.65;;;19.40;99.90;;;;;;5114047;27;20483;-70
2022/06/26 00:08:26;;;;;;;12.25;9.27;;;19.50;99.90;;;;;;5130155;27;20165;-70
2022/06/26 00:10:52;;;;;;;10.57;9.13;;;19.50;99.90;;;;;;5130931;27;20459;-69
2022/06/26 00:13:18;;;;;;;13.02;9.90;;;19.50;99.90;;;;;;5094569;27;20047;-70
2022/06/26 00:15:44;;;;;;;10.93;9.70;;;19.50;99.90;;;;;;5130171;27;20050;-70
2022/06/26 00:18:11;;;;;;;16.10;9.68;;;19.40;99.90;;;;;;5121972;27;20471;-70
2022/06/26 00:20:36;;;;;;;12.93;9.23;;;19.40;99.90;;;;;;5125606;27;20043;-70
2022/06/26 00:23:02;;;;;;;15.88;9.60;;;19.40;99.90;;;;;;5111758;27;20032;-70
2022/06/26 00:25:29;;;;;;;12.98;9.88;;;19.40;99.90;;;;;;5109059;28;20046;-70
2022/06/26 00:27:55;;;;;;;12.10;9.57;;;19.40;99.90;;;;;;5108541;28;20119;-70
2022/06/26 00:30:21;;;;;;;12.02;9.57;;;19.40;99.90;;;;;;5109631;28;20044;-70
2022/06/26 00:32:47;;;;;;;13.82;10.82;;;19.40;99.90;;;;;;5110698;27;20047;-70
2022/06/26 00:35:13;;;;;;;12.00;9.90;;;19.40;99.90;;;;;;5110662;27;20045;-70
2022/06/26 00:37:38;;;;;;;15.15;10.70;;;19.30;99.90;;;;;;5109933;27;20062;-70
2022/06/26 00:40:05;;;;;;;14.25;11.25;;;19.40;99.90;;;;;;5130784;27;20035;-70
2022/06/26 00:42:31;;;;;;;14.48;11.23;;;19.30;99.90;;;;;;5111225;27;20051;-70
2022/06/26 00:44:56;;;;;;;17.23;10.57;;;19.30;99.90;;;;;;5132060;27;20092;-70
2022/06/26 00:47:23;;;;;;;14.65;12.02;;;19.30;99.90;;;;;;5130050;27;20086;-70
2022/06/26 00:49:49;;;;;;;14.38;11.20;;;19.10;99.90;;;;;;5129897;27;20039;-70
2022/06/26 00:52:16;;;;;;;11.95;10.63;;;19.10;99.90;;;;;;5127114;27;20463;-70
2022/06/26 00:54:42;;;;;;;15.68;12.23;;;19.20;99.90;;;;;;5124774;27;20146;-69
2022/06/26 00:57:08;;;;;;;14.48;11.48;;;19.10;99.90;;;;;;5127305;27;20058;-70
2022/06/26 00:59:35;;;;;;;19.60;12.10;;;19.10;99.90;;;;;;5112158;27;20050;-70
2022/06/26 01:02:01;;;;;;;15.80;12.07;;;19.20;99.90;;;;;;5129962;27;20054;-70
2022/06/26 01:04:26;;;;;;;17.10;12.32;;;19.10;99.90;;;;;;5111504;27;20043;-69
2022/06/26 01:06:52;;;;;;;16.17;12.73;;;19.10;99.90;;;;;;5111128;27;20051;-70
2022/06/26 01:09:18;;;;;;;17.33;13.75;;;19.10;99.90;;;;;;5130272;27;20456;-70
2022/06/26 01:11:44;;;;;;;16.98;12.98;;;19.10;99.90;;;;;;5127415;27;20122;-70
2022/06/26 01:14:11;;;;;;;19.38;15.57;;;19.10;99.90;;;;;;5129916;27;20480;-70
2022/06/26 01:16:39;;;;;;;20.63;17.40;;;19.10;99.90;;;;;;5129725;27;20043;-70
2022/06/26 01:19:06;;;;;;;22.42;16.88;;;19.10;99.90;;;;;;5129387;27;20406;-70
2022/06/26 01:21:33;;;;;;;19.42;17.13;;;19.10;99.90;;;;;;5130341;27;20043;-70
2022/06/26 01:23:59;;;;;;;19.38;16.88;;;19.10;99.90;;;;;;5133193;27;20064;-70
2022/06/26 01:26:26;;;;;;;20.38;15.85;;;19.20;99.90;;;;;;5127966;27;20038;-70
2022/06/26 01:28:52;;;;;;;19.60;15.57;;;19.10;99.90;;;;;;5106983;28;20070;-70
2022/06/26 01:31:21;;;;;;;18.48;15.90;;;19.20;99.90;;;;;;5110922;28;20035;-70
2022/06/26 01:33:48;;;;;;;19.38;16.08;;;19.20;99.90;;;;;;5123888;27;20517;-69
2022/06/26 01:36:13;;;;;;;21.40;15.68;;;19.20;99.90;;;;;;5129436;27;20046;-70
2022/06/26 01:38:39;;;;;;;20.98;14.82;;;19.20;99.90;;;;;;5130660;27;20076;-70
2022/06/26 01:41:05;;;;;;;16.35;14.57;;;19.20;99.90;;;;;;5129492;27;20065;-70
2022/06/26 01:43:33;;;;;;;20.83;14.68;;;19.30;99.90;;;;;;5116055;27;20047;-69
2022/06/26 01:46:00;;;;;;;18.30;14.45;;;19.20;99.90;;;;;;5128822;27;20082;-70
2022/06/26 01:48:27;;;;;;;20.02;14.50;;;19.30;99.90;;;;;;5128764;27;20086;-70
2022/06/26 01:50:55;;;;;;;19.65;14.95;;;19.30;99.90;;;;;;5130003;27;20054;-70
2022/06/26 01:53:21;;;;;;;14.55;13.05;;;19.30;99.90;;;;;;5127788;27;20034;-70
2022/06/26 01:55:47;;;;;;;17.60;13.85;;;19.30;99.90;;;;;;5110660;28;20403;-70
2022/06/26 01:58:15;;;;;;;15.70;13.07;;;19.30;99.90;;;;;;5127066;27;20319;-70
2022/06/26 02:00:43;;;;;;;16.45;12.68;;;19.20;99.90;;;;;;5122746;27;20497;-70
2022/06/26 02:03:09;;;;;;;18.10;12.30;;;19.20;99.90;;;;;;5129595;28;20039;-70
2022/06/26 02:05:35;;;;;;;15.43;12.30;;;19.20;99.90;;;;;;5129308;28;20039;-70
2022/06/26 02:08:02;;;;;;;15.82;12.05;;;19.20;99.90;;;;;;5126931;28;20039;-70
2022/06/26 02:15:59;;;;;;;;;;;19.20;99.90;;;;;;5110782;28;20304;-70
2022/06/26 02:18:26;;;;;;;14.57;10.55;;;19.60;99.90;;;;;;5108557;28;20376;-70
2022/06/26 02:20:52;;;;;;;12.15;9.48;;;19.20;99.90;;;;;;5108622;28;20043;-70
2022/06/26 02:23:18;;;;;;;12.93;9.63;;;19.20;99.90;;;;;;5110230;28;20127;-70
2022/06/26 02:25:44;;;;;;;13.85;9.50;;;19.20;99.90;;;;;;5104272;28;20035;-70
2022/06/26 02:28:11;;;;;;;16.60;9.85;;;19.20;99.90;;;;;;5114922;28;20507;-69
2022/06/26 02:30:36;;;;;;;12.63;8.82;;;19.20;99.90;;;;;;5108775;28;20395;-70
2022/06/26 02:33:03;;;;;;;12.40;8.60;;;19.20;99.90;;;;;;5108224;28;20028;-70
2022/06/26 02:35:29;;;;;;;17.20;9.27;;;19.20;99.90;;;;;;5089974;28;20694;-70
2022/06/26 02:37:56;;;;;;;12.60;9.05;;;19.20;99.90;;;;;;5106862;28;20040;-70
2022/06/26 02:40:23;;;;;;;13.25;9.20;;;19.20;99.90;;;;;;5116352;28;20150;-70
2022/06/26 02:42:49;;;;;;;14.85;8.75;;;19.10;99.90;;;;;;5128157;28;20039;-70
2022/06/26 02:45:15;;;;;;;16.40;9.05;;;18.90;99.90;;;;;;5129643;28;20049;-70
2022/06/26 02:47:41;;;;;;;12.48;8.23;;;19.00;99.90;;;;;;5128530;28;20050;-70
2022/06/26 02:50:07;;;;;;;13.10;7.30;;;19.00;99.90;;;;;;5128432;28;20035;-70
2022/06/26 02:52:33;;;;;;;13.55;8.25;;;18.90;99.90;;;;;;5110303;28;20051;-70
2022/06/26 02:55:00;;;;;;;11.00;6.82;;;18.70;99.90;;;;;;5128351;28;20377;-70
2022/06/26 02:57:26;;;;;;;10.35;6.65;;;18.70;99.90;;;;;;5105739;28;20111;-69
2022/06/26 02:59:52;;;;;;;12.27;6.45;;;18.60;99.90;;;;;;5112332;28;20119;-70
2022/06/26 03:02:18;;;;;;;11.63;5.97;;;18.60;99.90;;;;;;5111120;28;20566;-70
2022/06/26 03:04:44;;;;;;;10.75;5.97;;;18.50;99.90;;;;;;5094786;28;20107;-70
2022/06/26 03:07:09;;;;;;;10.20;5.85;;;18.40;99.90;;;;;;5121278;27;20065;-70
2022/06/26 03:09:35;;;;;;;7.93;5.50;;;18.50;99.90;;;;;;5113385;28;20044;-70
2022/06/26 03:12:01;;;;;;;6.68;4.88;;;18.50;99.90;;;;;;5108700;28;20169;-70
2022/06/26 03:14:26;;;;;;;7.97;5.10;;;18.50;99.90;;;;;;5112219;27;20051;-70
2022/06/26 03:16:52;;;;;;;7.65;4.90;;;18.60;99.90;;;;;;5111510;28;20043;-70
2022/06/26 03:19:18;;;;;;;8.10;4.90;;;18.50;99.90;;;;;;5129289;27;20038;-70
2022/06/26 03:21:44;;;;;;;7.85;4.80;;;18.50;99.90;;;;;;5113771;27;20055;-70
2022/06/26 03:24:09;;;;;;;6.53;4.60;;;18.70;99.90;;;;;;5131650;27;20043;-70
2022/06/26 03:26:37;;;;;;;9.25;5.18;;;18.50;99.90;;;;;;5130233;27;20070;-69
2022/06/26 03:29:05;;;;;;;8.73;5.00;;;18.50;99.90;;;;;;5131177;27;20043;-70
2022/06/26 03:31:31;;;;;;;7.78;4.97;;;18.60;99.90;;;;;;5111505;27;20142;-70
2022/06/26 03:33:58;;;;;;;7.05;4.40;;;18.60;99.90;;;;;;5110612;28;20118;-70
2022/06/26 03:36:24;;;;;;;5.97;4.40;;;18.50;99.90;;;;;;5110843;28;20131;-70
2022/06/26 03:38:51;;;;;;;6.00;4.88;;;18.60;99.90;;;;;;5111106;27;20122;-70
2022/06/26 03:41:18;;;;;;;7.05;4.68;;;18.50;99.90;;;;;;5112206;27;20031;-70
2022/06/26 03:43:43;;;;;;;8.07;4.90;;;18.50;99.90;;;;;;5111352;27;20042;-69
2022/06/26 03:46:09;;;;;;;9.52;4.72;;;18.60;99.90;;;;;;5122425;27;20031;-70
2022/06/26 03:48:35;;;;;;;9.20;4.60;;;18.50;99.90;;;;;;5111031;28;20058;-70
2022/06/26 03:51:01;;;;;;;7.05;4.90;;;18.40;99.90;;;;;;5112983;27;20364;-70
2022/06/26 03:53:28;;;;;;;6.45;4.80;;;18.40;99.90;;;;;;5124045;27;20038;-70
2022/06/26 03:55:55;;;;;;;5.65;4.43;;;18.40;99.90;;;;;;5102288;27;20073;-70
2022/06/26 03:58:20;;;;;;;6.53;4.22;;;18.40;99.90;;;;;;5129929;27;20051;-70
2022/06/26 04:00:46;;;;;;;9.00;4.80;;;18.40;99.90;;;;;;5130452;27;20046;-70
2022/06/26 04:03:12;;;;;;;7.10;4.40;;;18.70;99.90;;;;;;5116242;27;20568;-70
2022/06/26 04:05:38;;;;;;;5.65;4.57;;;18.30;99.90;;;;;;5108427;27;20035;-69
2022/06/26 04:08:05;;;;;;;6.03;4.47;;;18.40;99.90;;;;;;5111847;27;20047;-70
2022/06/26 04:10:31;;;;;;;6.40;4.03;;;18.30;99.90;;;;;;5131422;27;20047;-70
2022/06/26 04:13:02;;;;;;;6.07;3.95;;;18.30;99.90;;;;;;5129564;27;20096;-69
2022/06/26 04:15:30;;;;;;;8.35;4.40;;;18.20;99.90;;;;;;5130184;27;20050;-70
2022/06/26 04:17:55;;;;;;;6.50;4.47;;;18.20;99.90;;;;;;5111434;27;20047;-70
2022/06/26 04:20:21;;;;;;;6.25;3.97;;;18.50;99.90;;;;;;5110462;28;20665;-70
2022/06/26 04:22:58;;;;;;;6.88;3.97;;;18.30;99.90;;;;;;5119363;27;20023;-70
2022/06/26 04:25:24;;;;;;;7.20;3.83;;;18.30;99.90;;;;;;5130855;27;20043;-70
2022/06/26 04:27:51;;;;;;;6.65;3.85;;;18.40;99.90;;;;;;5125235;27;20054;-70
2022/06/26 04:30:17;;;;;;;10.23;4.05;;;18.30;99.90;;;;;;5127970;27;20484;-69
2022/06/26 04:32:42;;;;;;;7.10;3.75;;;18.30;99.90;;;;;;5108440;28;20059;-70
2022/06/26 04:35:09;;;;;;;6.13;3.58;;;18.40;99.90;;;;;;5110125;27;20035;-70
2022/06/26 04:37:40;;;;;;;5.07;3.67;;;18.40;99.90;;;;;;5111354;27;20043;-70
2022/06/26 04:40:07;;;;;;;6.60;3.90;;;18.40;99.90;;;;;;5110678;27;20392;-70
2022/06/26 04:42:33;;;;;;;5.70;3.83;;;18.50;99.90;;;;;;5110295;27;20108;-69
2022/06/26 04:44:59;;;;;;;5.53;3.85;;;18.50;99.90;;;;;;5131091;27;20039;-69
2022/06/26 04:47:24;;;;;;;5.90;3.88;;;18.50;99.90;;;;;;5109967;27;20043;-70
2022/06/26 04:49:50;;;;;;;7.00;4.10;;;18.50;99.90;;;;;;5129251;27;20391;-70
2022/06/26 04:52:16;;;;;;;6.03;3.90;;;18.70;99.90;;;;;;5110692;27;20092;-70
2022/06/26 04:54:45;;;;;;;5.63;4.28;;;18.60;99.90;;;;;;5120773;27;20051;-70
2022/06/26 04:57:11;;;;;;;6.20;4.20;;;18.50;99.90;;;;;;5109882;27;20055;-70
2022/06/26 04:59:37;;;;;;;9.30;4.50;;;18.50;99.90;;;;;;5130768;27;20436;-70
2022/06/26 05:02:05;;;;;;;6.80;4.47;;;18.40;99.90;;;;;;5129139;27;20043;-69
2022/06/26 05:04:30;;;;;;;7.40;4.43;;;18.50;99.90;;;;;;5130279;27;20407;-70
2022/06/26 05:06:56;;;;;;;5.63;3.67;;;18.30;99.90;;;;;;5117494;27;20032;-70
2022/06/26 05:09:23;;;;;;;6.15;4.45;;;18.30;99.90;;;;;;5130141;27;20039;-69
2022/06/26 05:11:49;;;;;;;5.43;3.97;;;18.40;99.90;;;;;;5128447;27;20047;-70
2022/06/26 05:14:15;;;;;;;6.60;4.30;;;18.30;99.90;;;;;;5129419;27;20123;-70
2022/06/26 05:16:40;;;;;;;5.38;4.40;;;18.30;99.90;;;;;;5128694;27;20134;-70
2022/06/26 05:19:06;;;;;;;7.35;4.60;;;18.30;99.90;;;;;;5129063;27;20039;-70
2022/06/26 05:21:32;;;;;;;7.35;4.63;;;18.30;99.90;;;;;;5114759;27;20070;-70
2022/06/26 05:23:58;;;;;;;7.50;4.80;;;18.40;99.90;;;;;;5111499;27;20031;-69
2022/06/26 05:26:24;;;;;;;5.30;4.20;;;18.60;99.90;;;;;;5109721;27;20099;-70
2022/06/26 05:28:50;;;;;;;7.57;4.72;;;18.50;99.90;;;;;;5108271;27;20519;-70
2022/06/26 05:31:15;;;;;;;5.82;4.22;;;18.50;99.90;;;;;;5108464;28;20036;-69
2022/06/26 05:33:41;;;;;;;5.88;4.25;;;18.60;99.90;;;;;;5109335;28;20039;-69
2022/06/26 05:36:08;;;;;;;5.80;4.70;;;18.50;99.90;;;;;;5110537;27;20040;-70
2022/06/26 05:38:35;;;;;;;7.72;4.78;;;18.60;99.90;;;;;;5097038;27;20042;-69
2022/06/26 05:41:03;;;;;;;6.22;4.65;;;18.50;99.90;;;;;;5112787;27;20044;-68
2022/06/26 05:43:29;;;;;;;7.68;4.82;;;18.50;99.90;;;;;;5087648;28;20052;-69
2022/06/26 05:45:54;;;;;;;10.75;5.03;;;18.50;99.90;;;;;;5108875;28;20048;-69
2022/06/26 05:48:20;;;;;;;6.50;4.95;;;18.50;99.90;;;;;;5108850;28;20062;-69
2022/06/26 05:50:46;;;;;;;6.22;5.00;;;18.50;99.90;;;;;;5109832;28;20492;-69
2022/06/26 05:53:12;;;;;;;7.85;5.50;;;18.50;99.90;;;;;;5109525;28;20039;-71
2022/06/26 05:55:38;;;;;;;6.82;5.88;;;18.60;99.90;;;;;;5108555;28;20057;-69
2022/06/26 05:58:05;;;;;;;9.05;6.50;;;18.60;99.90;;;;;;5107275;28;20039;-69
2022/06/26 06:00:31;;;;;;;7.78;6.07;;;18.60;99.90;;;;;;5108065;28;20046;-69
2022/06/26 06:02:58;;;;;;;8.93;6.65;;;18.50;99.90;;;;;;5090554;28;20184;-69
2022/06/26 06:05:23;;;;;;;7.43;6.18;;;18.50;99.90;;;;;;5108825;28;20110;-69
2022/06/26 06:07:49;;;;;;;9.30;7.10;;;18.60;99.90;;;;;;5107635;28;20126;-69
2022/06/26 06:10:15;;;;;;;9.43;7.40;;;18.80;99.90;;;;;;5091293;28;20044;-69
2022/06/26 06:12:40;;;;;;;8.38;6.80;;;18.70;99.90;;;;;;5106867;28;20342;-70
2022/06/26 06:15:07;;;;;;;10.05;6.90;;;18.70;99.90;;;;;;5118417;28;20092;-70
2022/06/26 06:17:35;;;;;;;11.23;7.55;;;18.70;99.90;;;;;;5098194;28;20043;-70
2022/06/26 06:20:05;;;;;;;8.40;7.00;;;18.70;99.90;;;;;;5112643;28;20127;-70
2022/06/26 06:22:30;;;;;;;10.18;8.13;;;18.70;99.90;;;;;;5108604;28;20127;-70
2022/06/26 06:24:56;;;;;;;12.52;8.30;;;18.70;99.90;;;;;;5108798;28;20491;-69
2022/06/26 06:27:22;;;;;;;10.60;8.23;;;18.70;99.90;;;;;;5106725;28;20047;-70
2022/06/26 06:29:47;;;;;;;10.10;8.50;;;18.80;99.90;;;;;;5108834;28;20050;-70
2022/06/26 06:32:13;;;;;;;11.93;9.18;;;18.80;99.90;;;;;;5123370;27;20059;-70
2022/06/26 06:34:39;;;;;;;13.70;10.57;;;18.70;99.90;;;;;;5133649;27;20046;-70
2022/06/26 06:37:05;;;;;;;11.15;9.90;;;18.70;99.90;;;;;;5130014;27;20134;-70
2022/06/26 06:39:31;;;;;;;13.30;10.60;;;18.80;99.90;;;;;;5094674;28;20150;-69
2022/06/26 06:41:57;;;;;;;13.02;10.52;;;18.90;99.90;;;;;;5110658;28;20548;-70
2022/06/26 06:44:23;;;;;;;15.75;11.70;;;19.00;99.90;;;;;;5113118;27;20039;-70
2022/06/26 06:46:49;;;;;;;14.90;12.30;;;19.10;99.90;;;;;;5112264;28;20044;-70
2022/06/26 06:49:14;;;;;;;16.35;12.60;;;19.20;99.90;;;;;;5112122;28;20036;-70
2022/06/26 06:51:40;;;;;;;16.58;13.23;;;19.20;99.90;;;;;;5111159;28;20044;-70
2022/06/26 06:54:06;;;;;;;15.32;13.15;;;19.20;99.90;;;;;;5110746;28;20062;-70
2022/06/26 06:56:32;;;;;;;14.73;12.38;;;19.30;99.90;;;;;;5110323;28;20052;-70
2022/06/26 06:58:58;;;;;;;16.63;12.98;;;19.30;99.90;;;;;;5111934;27;20496;-70
2022/06/26 07:01:23;;;;;;;16.40;14.25;;;19.30;99.90;;;;;;5111581;28;20075;-70
2022/06/26 07:03:49;;;;;;;18.65;13.30;;;19.20;99.90;;;;;;5110301;28;20082;-70
2022/06/26 07:06:15;;;;;;;14.45;12.95;;;19.20;99.90;;;;;;5111774;28;20044;-70
2022/06/26 07:08:40;;;;;;;18.23;13.10;;;19.20;99.90;;;;;;5113031;28;20039;-70
2022/06/26 07:11:06;;;;;;;15.80;13.55;;;19.30;99.90;;;;;;5113821;27;20396;-70
2022/06/26 07:13:32;;;;;;;16.67;14.07;;;19.20;99.90;;;;;;5125163;27;20039;-70
2022/06/26 07:15:58;;;;;;;16.17;13.75;;;19.40;99.90;;;;;;5114039;27;20408;-70
2022/06/26 07:18:24;;;;;;;14.68;13.18;;;19.40;99.90;;;;;;5113045;28;20421;-70
2022/06/26 07:20:50;;;;;;;15.70;14.10;;;19.60;99.90;;;;;;5116474;27;20084;-69
2022/06/26 07:23:16;;;;;;;17.35;15.32;;;19.70;99.90;;;;;;5127082;27;20656;-73
2022/06/26 07:25:42;;;;;;;18.35;15.18;;;19.70;99.90;;;;;;5115880;27;20040;-73
2022/06/26 07:28:08;;;;;;;19.38;15.35;;;19.70;99.90;;;;;;5109800;28;20488;-73
2022/06/26 07:30:34;;;;;;;20.63;15.57;;;19.70;99.90;;;;;;5110508;28;20036;-73
2022/06/26 07:35:52;;;;;;;18.05;16.15;;;19.70;99.90;;;;;;5113125;27;20048;-72
2022/06/26 07:38:17;;;;;;;18.65;16.13;;;19.70;99.90;;;;;;5119224;27;20392;-73
2022/06/26 07:40:43;;;;;;;18.98;15.80;;;19.70;99.90;;;;;;5114027;27;20043;-74
2022/06/26 07:43:08;;;;;;;20.75;17.05;;;19.70;99.90;;;;;;5112690;27;20084;-73
2022/06/26 07:45:34;;;;;;;18.15;16.23;;;19.70;99.90;;;;;;5110957;28;20051;-73
2022/06/26 07:48:00;;;;;;;19.58;17.02;;;19.70;99.90;;;;;;5111336;28;20062;-73
2022/06/26 07:50:26;;;;;;;20.08;17.88;;;19.90;99.90;;;;;;5111495;27;20127;-73
2022/06/26 07:52:51;;;;;;;18.98;16.35;;;19.90;99.90;;;;;;5112133;28;20035;-73
2022/06/26 07:55:17;;;;;;;20.92;16.83;;;19.90;99.90;;;;;;5110768;28;20044;-73
2022/06/26 07:57:43;;;;;;;18.05;15.85;;;19.90;99.90;;;;;;5108857;28;20426;-73
2022/06/26 08:00:10;;;;;;;20.70;17.50;;;19.80;99.90;;;;;;5127269;27;20037;-73
2022/06/26 08:02:36;;;;;;;20.83;17.17;;;19.80;99.90;;;;;;5111883;27;20108;-73
2022/06/26 08:05:01;;;;;;;17.23;15.05;;;20.10;99.90;;;;;;5130938;27;20433;-75
2022/06/26 08:07:27;;;;;;;17.00;14.93;;;20.20;99.90;;;;;;5130778;27;20039;-74
2022/06/26 08:09:53;;;;;;;16.38;13.30;;;20.40;99.90;;;;;;5131373;27;20058;-73
2022/06/26 08:12:18;;;;;;;14.35;12.85;;;20.50;99.90;;;;;;5110760;27;20141;-73
2022/06/26 08:14:44;;;;;;;15.68;12.73;;;20.60;99.90;;;;;;5090708;28;20373;-73
2022/06/26 08:17:10;;;;;;;13.65;12.15;;;20.70;99.90;;;;;;5110099;28;20055;-74
2022/06/26 08:19:35;;;;;;;13.70;10.88;;;20.80;99.90;;;;;;5124687;27;20066;-75
2022/06/26 08:22:01;;;;;;;13.38;10.20;;;21.00;99.90;;;;;;5130683;27;20043;-76
2022/06/26 08:24:27;;;;;;;14.13;10.45;;;21.20;99.90;;;;;;5128210;27;20092;-75
2022/06/26 08:26:54;;;;;;;12.68;9.95;;;21.40;99.90;;;;;;5111552;27;20044;-75
2022/06/26 08:29:19;;;;;;;13.23;10.85;;;21.40;99.90;;;;;;5117070;27;20099;-74
2022/06/26 08:31:45;;;;;;;13.95;10.07;;;21.40;99.90;;;;;;5112943;27;20118;-74
2022/06/26 08:34:11;;;;;;;14.40;9.50;;;21.50;99.90;;;;;;5109833;28;20075;-74
2022/06/26 08:36:38;;;;;;;12.25;9.00;;;21.40;99.90;;;;;;5109557;28;20044;-76
2022/06/26 08:39:07;;;;;;;10.32;8.85;;;21.30;99.90;;;;;;5119105;27;20391;-76
2022/06/26 08:41:40;;;;;;;11.10;8.27;;;21.30;99.90;;;;;;5095753;28;20076;-76
2022/06/26 08:44:06;;;;;;;12.23;9.40;;;21.30;99.90;;;;;;5108782;28;20044;-77
2022/06/26 08:46:38;;;;;;;11.57;9.45;;;21.40;99.90;;;;;;5090533;28;20043;-78
2022/06/26 08:49:12;;;;;;;11.82;7.78;;;21.40;99.90;;;;;;5092023;28;20039;-78
2022/06/26 08:51:43;;;;;;;10.82;7.15;;;21.40;99.90;;;;;;5100187;28;20043;-77
2022/06/26 08:54:09;;;;;;;11.95;8.18;;;21.30;99.90;;;;;;5124358;27;20134;-77
2022/06/26 08:56:41;;;;;;;10.98;8.18;;;21.30;99.90;;;;;;5127473;27;20065;-78
2022/06/26 08:59:08;;;;;;;8.30;6.97;;;21.20;99.90;;;;;;5130538;27;20050;-78
2022/06/26 09:01:36;;;;;;;8.98;7.03;;;21.10;99.90;;;;;;5093540;27;20092;-78
2022/06/26 09:04:02;;;;;;;10.98;6.93;;;21.60;99.90;;;;;;5095613;27;20126;-77
2022/06/26 09:06:28;;;;;;;9.13;7.13;;;21.30;99.90;;;;;;5114494;27;20132;-78
2022/06/26 09:08:54;;;;;;;8.85;7.00;;;21.20;99.90;;;;;;5103057;28;20075;-77
2022/06/26 09:11:20;;;;;;;9.52;7.63;;;21.40;99.90;;;;;;5113818;27;20046;-77
2022/06/26 09:13:49;;;;;;;10.05;7.10;;;21.40;99.90;;;;;;5103492;28;20035;-77
2022/06/26 09:16:15;;;;;;;8.63;6.88;;;21.60;99.90;;;;;;5112263;27;20059;-77
2022/06/26 09:18:42;;;;;;;9.40;5.80;;;21.80;99.90;;;;;;5108049;27;20405;-77
2022/06/26 09:21:12;;;;;;;8.77;5.60;;;22.00;99.90;;;;;;5108811;28;20062;-77
2022/06/26 09:23:50;;;;;;;6.95;4.32;;;22.00;99.90;;;;;;5111300;28;20039;-77
2022/06/26 09:26:16;;;;;;;6.47;3.50;;;22.20;99.90;;;;;;5111360;27;20397;-78
2022/06/26 09:28:41;;;;;;;7.00;3.40;;;22.30;99.90;;;;;;5108931;27;20118;-76
2022/06/26 09:31:07;;;;;;;7.78;3.28;;;22.40;99.90;;;;;;5109885;27;20051;-76
2022/06/26 09:33:35;;;;;;;6.00;3.60;;;22.40;99.90;;;;;;5128072;27;20175;-76
2022/06/26 09:36:03;;;;;;;5.38;4.00;;;22.40;99.90;;;;;;5118890;27;20496;-78
2022/06/26 09:38:31;;;;;;;5.07;3.80;;;22.30;99.90;;;;;;5082997;28;20492;-77
2022/06/26 09:41:06;;;;;;;5.20;3.28;;;22.60;99.90;;;;;;5113604;27;20534;-77
2022/06/26 09:43:34;;;;;;;4.63;3.08;;;22.50;99.90;;;;;;5106033;27;20044;-78
2022/06/26 09:46:04;;;;;;;5.05;2.92;;;22.30;99.90;;;;;;5109413;28;20050;-76
2022/06/26 09:48:31;;;;;;;5.35;3.17;;;22.40;99.90;;;;;;5122289;27;20058;-78
2022/06/26 09:50:57;;;;;;;8.45;3.40;;;22.60;99.90;;;;;;5128928;27;20092;-77
2022/06/26 09:53:24;;;;;;;5.55;3.28;;;22.60;99.90;;;;;;5127063;27;20121;-77
2022/06/26 09:55:52;;;;;;;5.03;3.25;;;22.60;99.90;;;;;;5091227;28;20063;-77
2022/06/26 09:58:18;;;;;;;8.20;3.10;;;22.80;99.90;;;;;;5106015;28;20177;-77
2022/06/26 10:06:25;;;;;;;8.45;3.05;;;23.20;99.90;;;;;;5109324;28;20043;-77
2022/06/26 10:06:27;;;;;;;4.85;3.08;;;23.70;99.90;;;;;;5090049;28;20256;-77
2022/06/26 10:08:55;;;;;;;6.45;3.15;;;24.40;99.90;;;;;;5109272;28;20032;-77
2022/06/26 10:11:29;;;;;;;5.03;3.00;;;25.00;99.90;;;;;;5089039;28;20116;-77
2022/06/26 10:14:15;;;;;;;4.10;2.60;;;25.60;99.90;;;;;;5109432;28;20330;-77
2022/06/26 10:17:22;;;;;;;7.00;2.95;;;27.00;99.90;;;;;;5107931;28;20539;-77
2022/06/26 10:20:19;;;;;;;4.20;2.47;;;28.40;98.70;;;;;;5060511;28;20154;-78
2022/06/26 10:22:45;;;;;;;5.03;2.60;;;30.40;96.20;;;;;;5109755;28;20043;-78
2022/06/26 10:25:23;;;;;;;6.07;2.75;;;31.20;93.60;;;;;;5107719;28;20468;-79
2022/06/26 10:27:49;;;;;;;4.93;2.40;;;31.90;93.90;;;;;;5096989;28;20040;-75
2022/06/26 10:30:17;;;;;;;3.83;2.20;;;32.80;93.20;;;;;;5119164;28;20047;-75
2022/06/26 10:32:43;;;;;;;5.47;2.60;;;33.80;92.80;;;;;;5104480;28;20482;-74
2022/06/26 10:35:10;;;;;;;5.32;2.40;;;33.20;92.30;;;;;;5107146;28;20052;-74
2022/06/26 10:37:47;;;;;;;4.57;2.75;;;31.80;92.60;;;;;;5123190;28;20051;-74
2022/06/26 10:42:52;;;;;;;4.45;2.30;;;30.70;92.30;;;;;;5085846;28;20043;-74
2022/06/26 10:43:02;;;;;;;3.63;2.20;;;29.40;94.10;;;;;;5103127;28;20052;-74
2022/06/26 10:45:46;;;;;;;3.95;2.00;;;28.60;94.60;;;;;;5104392;28;20516;-74
2022/06/26 10:48:20;;;;;;;4.40;2.17;;;27.70;94.30;;;;;;5104401;28;20050;-74
2022/06/26 10:51:01;;;;;;;3.45;1.80;;;27.10;93.80;;;;;;5104804;28;20402;-74
2022/06/26 10:53:35;;;;;;;6.00;2.00;;;26.70;93.90;;;;;;5118221;28;20042;-74
2022/06/26 10:56:07;;;;;;;4.03;2.20;;;26.30;95.20;;;;;;5106668;28;20429;-74
2022/06/26 10:58:39;;;;;;;5.55;2.20;;;26.10;95.60;;;;;;5089960;28;20435;-79
2022/06/26 11:01:07;;;;;;;4.88;2.13;;;26.10;95.70;;;;;;5090318;28;20458;-79
2022/06/26 11:03:34;;;;;;;4.47;2.30;;;25.80;96.30;;;;;;5106887;28;20108;-79
2022/06/26 11:06:07;;;;;;;6.50;2.45;;;25.50;96.40;;;;;;5107316;28;20048;-79
2022/06/26 11:08:37;;;;;;;6.13;2.60;;;25.30;97.00;;;;;;5088601;28;20507;-79
2022/06/26 11:11:07;;;;;;;4.70;2.50;;;25.10;97.60;;;;;;5089929;28;20404;-79
2022/06/26 11:13:36;;;;;;;8.32;2.70;;;25.00;98.30;;;;;;5105116;28;20403;-79
2022/06/26 11:16:03;;;;;;;4.60;2.50;;;24.90;98.90;;;;;;5102763;28;20065;-78
2022/06/26 11:18:36;;;;;;;5.38;2.30;;;24.90;99.40;;;;;;5088856;28;20391;-79
2022/06/26 11:21:03;;;;;;;7.03;2.60;;;24.90;99.70;;;;;;5102799;27;20050;-79
2022/06/26 11:23:34;;;;;;;6.35;2.90;;;24.90;99.50;;;;;;5111798;27;20134;-78
2022/06/26 11:26:06;;;;;;;4.85;2.63;;;24.80;99.60;;;;;;5120365;27;20090;-78
2022/06/26 11:28:34;;;;;;;5.80;2.70;;;25.10;99.70;;;;;;5115329;27;20038;-71
2022/06/26 11:31:02;;;;;;;5.47;2.75;;;25.10;99.50;;;;;;5115930;27;20373;-72
2022/06/26 11:33:31;;;;;;;6.47;2.70;;;25.40;99.40;;;;;;5110858;28;20455;-72
2022/06/26 11:36:03;;;;;;;6.18;2.50;;;25.50;99.30;;;;;;5092249;28;20062;-71
2022/06/26 11:38:30;;;;;;;4.65;2.42;;;25.70;99.20;;;;;;5111184;28;20052;-72
2022/06/26 11:40:58;;;;;;;5.43;2.60;;;25.50;99.00;;;;;;5093270;28;20089;-71
2022/06/26 11:43:24;;;;;;;5.53;2.38;;;25.10;98.90;;;;;;5090781;28;20611;-71
2022/06/26 11:45:50;;;;;;;3.67;2.40;;;25.10;99.30;;;;;;5109921;28;20043;-71
2022/06/26 11:48:17;;;;;;;4.53;2.20;;;24.90;99.40;;;;;;5092761;28;20086;-71
2022/06/26 11:50:54;;;;;;;3.72;2.30;;;24.90;99.60;;;;;;5126082;27;20047;-71
2022/06/26 11:53:28;;;;;;;4.97;2.30;;;24.60;99.60;;;;;;5114241;27;20119;-71
2022/06/26 11:55:57;;;;;;;3.92;2.30;;;24.70;99.60;;;;;;5131074;27;20415;-71
2022/06/26 11:58:26;;;;;;;3.80;1.95;;;25.20;99.00;;;;;;5112105;27;20554;-71
2022/06/26 12:01:08;;;;;;;5.28;2.00;;;25.80;98.70;;;;;;5132485;27;20047;-72
2022/06/26 12:03:49;;;;;;;4.35;1.95;;;26.40;97.60;;;;;;5121353;27;20078;-71
2022/06/26 12:06:31;;;;;;;4.80;2.15;;;26.40;97.40;;;;;;5110552;28;20079;-71
2022/06/26 12:08:57;;;;;;;4.97;2.15;;;26.10;97.40;;;;;;5111203;28;20043;-71
2022/06/26 12:11:24;;;;;;;4.93;2.10;;;25.20;98.40;;;;;;5074628;28;20511;-71
2022/06/26 12:13:49;;;;;;;4.28;2.08;;;25.10;99.00;;;;;;5091076;28;20130;-71
2022/06/26 12:16:18;;;;;;;5.20;2.30;;;24.90;99.20;;;;;;5128804;27;20127;-71
2022/06/26 12:18:44;;;;;;;5.15;2.10;;;24.90;99.30;;;;;;5111110;27;20556;-71
2022/06/26 12:21:15;;;;;;;4.45;2.28;;;25.00;99.60;;;;;;5122722;27;20468;-71
2022/06/26 12:23:43;;;;;;;7.18;2.45;;;25.00;99.50;;;;;;5109637;28;20411;-71
2022/06/26 12:26:11;;;;;;;6.00;2.47;;;25.00;99.80;;;;;;5092196;28;20454;-71
2022/06/26 12:28:52;;;;;;;3.50;2.10;;;24.90;99.90;;;;;;5090149;28;20085;-71
2022/06/26 12:31:20;;;;;;;3.50;2.10;;;24.80;98.70;;;;;;5109639;28;20126;-70
2022/06/26 12:33:47;;;;;;;2.85;1.80;;;24.90;99.40;;;;;;5110576;28;20044;-71
2022/06/26 12:36:14;;;;;;;4.05;1.92;;;24.90;99.10;;;;;;5109966;28;20040;-71
2022/06/26 12:38:40;;;;;;;5.28;2.03;;;24.90;98.80;;;;;;5090848;28;20055;-71
2022/06/26 12:41:16;;;;;;;6.32;2.15;;;25.10;98.80;;;;;;5110533;28;20422;-71
2022/06/26 12:43:46;;;;;;;4.60;2.17;;;25.20;98.60;;;;;;5090605;28;20040;-71
2022/06/26 12:46:12;;;;;;;5.65;2.35;;;25.10;98.50;;;;;;5108938;28;20057;-71
2022/06/26 12:48:37;;;;;;;5.50;2.05;;;24.90;98.40;;;;;;5091804;28;20516;-71
2022/06/26 12:51:03;;;;;;;6.28;2.20;;;24.80;98.50;;;;;;5110151;28;20110;-72
2022/06/26 12:53:29;;;;;;;4.07;2.10;;;24.80;98.40;;;;;;5115812;27;20507;-71